createdAt,value
2022-08-23T00:04:16.572Z,20.10
2022-08-23T00:11:33.798Z,20.00
2022-08-23T00:18:34.496Z,19.90
2022-08-23T00:25:35.208Z,19.70
2022-08-23T00:32:39.077Z,19.60
2022-08-23T00:39:40.723Z,19.50
2022-08-23T00:47:25.429Z,19.50
2022-08-23T00:54:28.670Z,19.40
2022-08-23T01:01:29.504Z,19.20
2022-08-23T01:08:32.617Z,19.10
2022-08-23T01:15:43.061Z,19.00
2022-08-23T01:23:19.146Z,18.90
2022-08-23T01:30:24.067Z,18.80
2022-08-23T01:37:25.747Z,18.70
2022-08-23T01:44:27.365Z,18.60
2022-08-23T01:51:30.390Z,18.60
2022-08-23T01:58:32.821Z,18.50
2022-08-23T02:05:37.179Z,18.40
2022-08-23T02:12:37.890Z,18.40
2022-08-23T02:19:46.464Z,18.40
2022-08-23T02:26:56.461Z,18.40
2022-08-23T02:41:17.574Z,18.40
2022-08-23T02:48:19.828Z,18.40
2022-08-23T02:55:30.982Z,18.40
2022-08-23T03:02:31.476Z,18.30
2022-08-23T03:09:32.979Z,18.20
2022-08-23T03:16:33.657Z,18.20
2022-08-23T03:23:35.823Z,18.10
2022-08-23T03:30:36.947Z,18.00
2022-08-23T03:37:41.384Z,18.00
2022-08-23T03:44:42.454Z,17.90
2022-08-23T03:51:42.960Z,17.90
2022-08-23T03:58:43.574Z,17.80
2022-08-23T04:05:44.847Z,17.70
2022-08-23T04:12:49.978Z,17.70
2022-08-23T04:19:52.640Z,17.60
2022-08-23T04:26:53.558Z,17.60
2022-08-23T04:33:56.388Z,17.60
2022-08-23T04:41:16.573Z,17.60
2022-08-23T04:48:19.919Z,17.60
2022-08-23T04:55:23.364Z,17.50
2022-08-23T05:02:31.527Z,17.50
2022-08-23T05:09:32.362Z,17.60
2022-08-23T05:16:33.930Z,17.60
2022-08-23T05:23:40.027Z,17.60
2022-08-23T05:31:05.481Z,17.60
2022-08-23T05:38:16.671Z,17.60
2022-08-23T05:45:21.814Z,17.70
2022-08-23T05:52:23.524Z,17.80
2022-08-23T05:59:24.842Z,18.00
2022-08-23T06:06:36.945Z,18.30
2022-08-23T06:13:47.534Z,18.50
2022-08-23T06:20:47.973Z,18.80
2022-08-23T06:27:54.192Z,19.10
2022-08-23T06:35:27.803Z,19.40
2022-08-23T06:42:42.000Z,19.70
2022-08-23T06:49:51.123Z,19.90
2022-08-23T06:57:18.612Z,20.20
2022-08-23T07:04:40.669Z,20.40
2022-08-23T07:11:48.356Z,20.80
2022-08-23T07:18:49.874Z,21.10
2022-08-23T07:25:50.777Z,21.40
2022-08-23T07:32:54.403Z,21.60
2022-08-23T07:39:58.440Z,21.90
2022-08-23T07:47:00.670Z,22.10
2022-08-23T07:54:05.580Z,22.20
2022-08-23T08:01:17.778Z,22.40
2022-08-23T08:08:22.415Z,22.70
2022-08-23T08:15:23.981Z,22.90
2022-08-23T08:22:32.241Z,23.10
2022-08-23T08:29:55.487Z,23.30
2022-08-23T08:36:58.866Z,23.50
2022-08-23T08:44:25.871Z,23.70
2022-08-23T08:51:42.801Z,23.90
2022-08-23T08:58:50.908Z,24.10
2022-08-23T09:06:00.307Z,24.30
2022-08-23T09:13:41.063Z,24.50
2022-08-23T09:20:47.168Z,24.80
2022-08-23T09:27:48.585Z,24.80
2022-08-23T09:34:50.179Z,25.00
2022-08-23T09:41:51.845Z,25.20
2022-08-23T09:48:55.283Z,25.20
2022-08-23T09:56:12.212Z,25.30
2022-08-23T10:03:42.175Z,25.40
2022-08-23T10:10:55.664Z,25.50
2022-08-23T10:18:42.244Z,25.60
2022-08-23T10:25:52.410Z,25.70
2022-08-23T10:33:18.476Z,25.90
2022-08-23T10:40:36.063Z,26.20
2022-08-23T10:47:54.167Z,26.50
2022-08-23T10:55:06.281Z,26.50
2022-08-23T11:02:17.746Z,26.50
2022-08-23T11:09:22.462Z,26.70
2022-08-23T11:16:31.108Z,27.20
2022-08-23T11:23:43.514Z,27.50
2022-08-23T11:30:50.105Z,27.70
2022-08-23T11:38:05.017Z,27.90
2022-08-23T11:45:28.945Z,27.90
2022-08-23T11:52:46.619Z,28.00
2022-08-23T12:00:11.348Z,28.20
2022-08-23T12:07:14.725Z,28.50
2022-08-23T12:14:58.848Z,28.80
2022-08-23T12:22:09.548Z,29.40
2022-08-23T12:29:25.780Z,29.70
2022-08-23T12:36:42.596Z,30.00
2022-08-23T12:43:56.792Z,30.20
2022-08-23T12:51:01.442Z,30.60
2022-08-23T12:58:02.953Z,30.80
2022-08-23T13:05:13.519Z,30.90
2022-08-23T13:12:16.821Z,31.10
2022-08-23T13:19:19.150Z,31.30
2022-08-23T13:26:39.764Z,31.30
2022-08-23T13:33:41.145Z,31.50
2022-08-23T13:40:47.790Z,31.60
2022-08-23T13:47:51.846Z,31.50
2022-08-23T13:54:53.220Z,31.60
2022-08-23T14:01:54.704Z,31.80
2022-08-23T14:08:55.984Z,32.00
2022-08-23T14:23:25.472Z,31.90
2022-08-23T14:30:32.794Z,31.90
2022-08-23T14:44:56.940Z,32.20
2022-08-23T14:51:57.560Z,32.00
2022-08-23T14:58:58.659Z,31.70
2022-08-23T15:05:59.768Z,31.00
2022-08-23T15:13:14.072Z,31.10
2022-08-23T15:20:26.988Z,31.60
2022-08-23T15:27:27.994Z,31.70
2022-08-23T15:34:29.200Z,31.80
2022-08-23T15:41:30.103Z,32.10
2022-08-23T15:48:36.903Z,32.00
2022-08-23T15:55:39.620Z,32.00
2022-08-23T16:03:04.376Z,32.20
2022-08-23T16:10:03.188Z,31.70
2022-08-23T16:17:05.319Z,31.10
2022-08-23T16:24:07.576Z,30.80
2022-08-23T16:31:08.222Z,30.70
2022-08-23T16:38:09.654Z,30.70
2022-08-23T16:45:10.920Z,30.80
2022-08-23T16:52:12.138Z,30.90
2022-08-23T16:59:13.402Z,30.90
2022-08-23T17:06:14.909Z,30.80
2022-08-23T17:13:18.969Z,30.50
2022-08-23T17:20:22.487Z,30.40
2022-08-23T17:27:24.725Z,30.30
2022-08-23T17:34:25.456Z,30.10
2022-08-23T17:41:28.398Z,29.80
2022-08-23T17:48:29.032Z,29.60
2022-08-23T17:55:32.652Z,29.40
2022-08-23T18:02:33.840Z,29.20
2022-08-23T18:09:37.861Z,29.00
2022-08-23T18:16:43.967Z,28.70
2022-08-23T18:23:46.490Z,28.60
2022-08-23T18:30:57.655Z,28.40
2022-08-23T18:37:58.422Z,28.20
2022-08-23T18:44:59.204Z,28.00
2022-08-23T18:52:00.437Z,27.80
2022-08-23T18:59:01.658Z,27.60
2022-08-23T19:06:02.043Z,27.30
2022-08-23T19:13:03.703Z,27.00
2022-08-23T19:20:06.600Z,26.80
2022-08-23T19:27:07.657Z,26.60
2022-08-23T19:34:09.293Z,26.20
2022-08-23T19:41:09.717Z,25.90
2022-08-23T19:48:57.434Z,25.60
2022-08-23T19:56:01.845Z,25.40
2022-08-23T20:03:03.129Z,25.30
2022-08-23T20:10:09.237Z,25.00
2022-08-23T20:17:10.173Z,24.80
2022-08-23T20:24:13.540Z,24.50
2022-08-23T20:31:24.858Z,24.30
2022-08-23T20:38:33.488Z,24.20
2022-08-23T20:45:35.849Z,24.00
2022-08-23T20:52:36.306Z,23.70
2022-08-23T20:59:40.986Z,23.60
2022-08-23T21:06:51.084Z,23.40
2022-08-23T21:13:51.991Z,23.30
2022-08-23T21:20:53.162Z,23.10
2022-08-23T21:27:53.983Z,22.90
2022-08-23T21:34:55.038Z,22.80
2022-08-23T21:41:56.669Z,22.70
2022-08-23T21:48:57.146Z,22.60
2022-08-23T21:55:58.307Z,22.40
2022-08-23T22:02:58.986Z,22.30
2022-08-23T22:09:59.460Z,22.20
2022-08-23T22:17:00.481Z,22.10
2022-08-23T22:24:00.966Z,22.00
2022-08-23T22:31:02.979Z,21.80
2022-08-23T22:38:13.668Z,21.70
2022-08-23T22:45:14.978Z,21.70
2022-08-23T22:52:15.566Z,21.60
2022-08-23T22:59:18.599Z,21.50
2022-08-23T23:06:19.703Z,21.40
2022-08-23T23:13:23.240Z,21.20
2022-08-23T23:20:41.628Z,21.10
2022-08-23T23:27:42.305Z,21.10
2022-08-23T23:34:42.861Z,21.00
2022-08-23T23:41:43.368Z,20.80
2022-08-23T23:48:46.270Z,20.80
2022-08-23T23:55:48.639Z,20.70
